Time;durP1;ratioP1;P1;durP2;ratioP2;P2;SDS_P1;SDS_P2;PMS_P1;PMS_P2;Temp;Humidity;BMP_temperature;BMP_pressure;BME280_temperature;BME280_humidity;BME280_pressure;Samples;Min_cycle;Max_cycle;Signal;HPM_P1;HPM_P2
2022/11/13 00:00:32;;;;;;;19.88;7.78;;;;;;;11.26;77.14;99458.53;5076567;28;20076;-94
2022/11/13 00:02:59;;;;;;;14.10;7.10;;;;;;;11.14;77.19;99433.94;5076371;28;20079;-94
2022/11/13 00:05:25;;;;;;;15.32;7.13;;;;;;;11.14;77.84;99444.59;5076503;28;20044;-96
2022/11/13 00:07:51;;;;;;;14.45;7.28;;;;;;;11.18;77.31;99446.28;5076314;28;20052;-95
2022/11/13 00:10:17;;;;;;;20.17;7.90;;;;;;;11.15;77.60;99441.03;5075474;28;20052;-96
2022/11/13 00:12:43;;;;;;;17.08;6.93;;;;;;;11.03;77.70;99424.34;5076113;28;20045;-95
2022/11/13 00:15:09;;;;;;;14.48;7.85;;;;;;;11.01;77.94;99409.31;5075988;28;20460;-95
2022/11/13 00:17:35;;;;;;;14.75;7.93;;;;;;;10.93;78.43;99401.50;5076415;28;20079;-94
2022/11/13 00:20:03;;;;;;;17.88;7.40;;;;;;;10.88;78.33;99408.66;5076642;28;20064;-96
2022/11/13 00:22:29;;;;;;;14.45;7.55;;;;;;;11.05;78.86;99445.63;5076255;28;20049;-95
2022/11/13 00:24:55;;;;;;;15.63;7.50;;;;;;;11.07;78.75;99441.16;5076584;28;20551;-95
2022/11/13 00:27:21;;;;;;;15.35;8.65;;;;;;;10.90;79.29;99417.50;5076846;28;20040;-96
2022/11/13 00:29:47;;;;;;;16.60;7.28;;;;;;;10.84;78.91;99423.84;5077271;28;20055;-95
2022/11/13 00:32:13;;;;;;;13.80;7.72;;;;;;;10.69;80.02;99413.44;5077397;28;20044;-96
2022/11/13 00:34:38;;;;;;;16.88;7.88;;;;;;;10.71;80.33;99419.59;5076255;28;20052;-95
2022/11/13 00:37:06;;;;;;;14.55;7.40;;;;;;;10.69;80.62;99413.44;5076030;28;20049;-96
2022/11/13 00:39:32;;;;;;;13.40;7.72;;;;;;;10.68;80.68;99412.56;5076617;28;20036;-96
2022/11/13 00:41:57;;;;;;;14.80;7.85;;;;;;;10.83;80.59;99432.69;5076160;28;20040;-96
2022/11/13 00:44:23;;;;;;;14.52;7.38;;;;;;;10.67;80.63;99417.94;5077460;28;20040;-96
2022/11/13 00:46:49;;;;;;;14.98;7.75;;;;;;;10.75;80.83;99439.94;5076401;28;20037;-96
2022/11/13 00:49:16;;;;;;;17.42;7.88;;;;;;;10.67;80.58;99401.97;5075986;28;20064;-95
2022/11/13 00:51:42;;;;;;;15.35;7.43;;;;;;;10.80;80.18;99414.16;5075694;28;20041;-95
2022/11/13 00:54:09;;;;;;;16.13;7.53;;;;;;;10.89;80.07;99411.31;5075808;28;20047;-94
2022/11/13 00:56:35;;;;;;;19.25;7.75;;;;;;;10.99;80.13;99443.06;5076367;28;20044;-96
2022/11/13 00:59:01;;;;;;;15.88;7.18;;;;;;;10.74;80.18;99397.41;5076242;28;20040;-95
2022/11/13 01:01:27;;;;;;;18.55;8.40;;;;;;;10.86;80.44;99403.41;5075479;28;20044;-94
2022/11/13 01:03:53;;;;;;;18.80;7.95;;;;;;;10.98;79.99;99415.59;5075618;28;20064;-93
2022/11/13 01:06:20;;;;;;;19.23;8.57;;;;;;;11.10;79.79;99425.13;5075295;28;20037;-94
2022/11/13 01:08:46;;;;;;;15.10;8.38;;;;;;;11.10;79.24;99407.38;5075471;28;20402;-94
2022/11/13 01:11:16;;;;;;;14.32;7.28;;;;;;;11.26;78.97;99429.25;5076348;28;20040;-95
2022/11/13 01:13:44;;;;;;;15.75;7.97;;;;;;;10.99;79.36;99389.84;5077426;28;20047;-96
2022/11/13 01:16:12;;;;;;;13.55;7.47;;;;;;;11.01;79.69;99404.88;5076091;28;20557;-96
2022/11/13 01:18:40;;;;;;;16.88;8.65;;;;;;;10.85;80.60;99395.44;5078535;28;20076;-95
2022/11/13 01:21:08;;;;;;;16.67;7.53;;;;;;;10.96;80.23;99397.91;5075062;28;20050;-95
2022/11/13 01:23:35;;;;;;;16.73;7.28;;;;;;;11.13;79.62;99411.78;5075346;28;20057;-95
2022/11/13 01:26:10;;;;;;;19.70;8.38;;;;;;;10.93;79.28;99374.91;5075654;28;20098;-95
2022/11/13 01:28:38;;;;;;;16.17;7.75;;;;;;;11.01;78.88;99374.72;5076021;28;20041;-96
2022/11/13 01:31:05;;;;;;;18.75;7.78;;;;;;;11.10;79.33;99401.16;5075067;28;20049;-96
2022/11/13 01:33:31;;;;;;;15.50;6.85;;;;;;;11.12;79.43;99407.34;5075803;28;20044;-95
2022/11/13 01:36:00;;;;;;;16.27;7.93;;;;;;;11.05;79.89;99405.72;5075066;28;20051;-93
2022/11/13 01:38:26;;;;;;;15.82;7.18;;;;;;;11.05;79.80;99408.38;5074896;28;20397;-93
2022/11/13 01:40:52;;;;;;;15.27;7.70;;;;;;;10.88;79.84;99374.09;5075341;28;20041;-94
2022/11/13 01:43:27;;;;;;;16.38;7.75;;;;;;;10.86;79.96;99379.47;5075423;28;20055;-94
2022/11/13 01:46:15;;;;;;;14.70;7.40;;;;;;;10.74;80.21;99368.16;5075227;28;20037;-95
2022/11/13 01:48:44;;;;;;;14.03;7.40;;;;;;;10.81;80.57;99399.94;5075456;28;20072;-94
2022/11/13 01:51:13;;;;;;;14.80;7.85;;;;;;;10.68;80.58;99369.13;5076117;28;20285;-93
2022/11/13 01:53:42;;;;;;;15.57;7.57;;;;;;;10.74;80.87;99390.31;5076871;28;20494;-94
2022/11/13 01:56:08;;;;;;;;;;;;;;;10.69;81.35;99400.13;5076446;28;20076;-95
2022/11/13 01:58:34;;;;;;;13.48;7.03;;;;;;;10.46;81.13;99363.31;5075416;28;20392;-95
2022/11/13 02:01:01;;;;;;;20.83;7.65;;;;;;;10.47;82.28;99384.56;5076675;28;20056;-95
2022/11/13 02:03:28;;;;;;;19.55;8.70;;;;;;;10.27;82.85;99357.38;5078132;28;20511;-96
2022/11/13 02:05:55;;;;;;;21.20;8.68;;;;;;;10.09;83.64;99353.25;5076715;28;20048;-96
2022/11/13 02:08:22;;;;;;;23.15;8.80;;;;;;;10.07;84.53;99363.03;5076717;28;20066;-95
2022/11/13 02:10:48;;;;;;;17.90;8.15;;;;;;;10.13;84.65;99367.34;5077278;28;20474;-96
2022/11/13 02:13:15;;;;;;;19.27;6.93;;;;;;;10.16;84.41;99354.91;5075973;28;20135;-96
2022/11/13 02:15:43;;;;;;;15.90;8.10;;;;;;;10.23;83.91;99343.25;5077786;28;20390;-92
2022/11/13 02:18:11;;;;;;;20.27;8.75;;;;;;;10.35;82.90;99336.91;5077900;28;20068;-96
2022/11/13 02:20:44;;;;;;;18.30;7.60;;;;;;;10.43;83.11;99356.28;5078513;28;20110;-96
2022/11/13 02:23:19;;;;;;;17.00;7.60;;;;;;;10.51;83.29;99374.75;5077763;28;20070;-95
2022/11/13 02:25:51;;;;;;;17.02;8.18;;;;;;;10.34;83.30;99348.44;5075623;28;20079;-94
2022/11/13 02:28:17;;;;;;;15.55;7.65;;;;;;;10.31;83.58;99352.94;5075696;28;20402;-95
2022/11/13 02:30:44;;;;;;;16.95;8.25;;;;;;;10.27;83.89;99355.59;5076999;28;20055;-94
2022/11/13 02:33:22;;;;;;;15.70;8.18;;;;;;;10.30;84.51;99360.06;5078776;28;20394;-95
2022/11/13 02:35:48;;;;;;;13.50;7.03;;;;;;;10.16;84.45;99338.09;5081226;28;20071;-96
2022/11/13 02:38:14;;;;;;;14.25;7.93;;;;;;;10.21;84.85;99354.81;5081026;28;20048;-96
2022/11/13 02:40:40;;;;;;;15.65;7.95;;;;;;;10.16;85.59;99357.56;5081537;28;20101;-95
2022/11/13 02:43:08;;;;;;;17.17;8.07;;;;;;;10.08;85.50;99352.38;5080229;28;20052;-96
2022/11/13 02:45:33;;;;;;;15.32;7.97;;;;;;;9.96;86.36;99341.06;5080902;28;20063;-96
2022/11/13 02:48:00;;;;;;;19.30;8.50;;;;;;;9.87;86.72;99326.16;5080732;28;20041;-96
2022/11/13 02:50:26;;;;;;;18.35;7.88;;;;;;;9.90;87.08;99341.16;5082956;28;20079;-96
2022/11/13 02:52:52;;;;;;;17.50;8.38;;;;;;;9.93;86.99;99335.78;5079163;28;20048;-96
2022/11/13 02:55:19;;;;;;;15.98;7.80;;;;;;;9.92;86.92;99334.91;5081967;28;20049;-96
2022/11/13 02:57:45;;;;;;;17.10;8.40;;;;;;;9.86;87.34;99327.91;5079137;28;20119;-96
2022/11/13 03:00:13;;;;;;;22.67;10.05;;;;;;;10.17;86.16;99329.19;5079120;28;20037;-93
2022/11/13 03:02:40;;;;;;;17.95;7.88;;;;;;;10.36;84.81;99338.66;5077484;28;20045;-95
2022/11/13 03:05:06;;;;;;;15.30;7.60;;;;;;;10.71;83.62;99361.09;5078418;28;20057;-91
2022/11/13 03:07:32;;;;;;;16.42;7.32;;;;;;;10.73;82.40;99342.44;5077619;28;20044;-95
2022/11/13 03:09:58;;;;;;;15.95;8.77;;;;;;;10.89;81.67;99344.78;5077518;28;20512;-92
2022/11/13 03:12:24;;;;;;;16.92;7.93;;;;;;;10.88;81.62;99348.34;5077127;28;20127;-95
2022/11/13 03:14:50;;;;;;;15.75;8.32;;;;;;;10.80;81.53;99333.44;5077467;28;20490;-92
2022/11/13 03:17:18;;;;;;;15.63;8.30;;;;;;;10.82;81.04;99334.28;5076274;28;20154;-94
2022/11/13 03:19:43;;;;;;;14.43;8.20;;;;;;;10.90;80.99;99343.00;5076935;28;20076;-93
2022/11/13 03:22:09;;;;;;;16.48;7.85;;;;;;;10.91;80.56;99350.09;5077477;28;20079;-94
2022/11/13 03:24:35;;;;;;;15.27;7.72;;;;;;;10.85;80.44;99336.91;5078018;28;20049;-94
2022/11/13 03:27:01;;;;;;;16.80;7.80;;;;;;;10.83;80.39;99336.06;5076859;28;20037;-94
2022/11/13 03:29:27;;;;;;;15.38;8.10;;;;;;;10.79;80.76;99332.56;5077161;28;20052;-96
2022/11/13 03:31:53;;;;;;;15.13;7.40;;;;;;;10.89;80.92;99342.13;5076697;28;20079;-92
2022/11/13 03:34:20;;;;;;;13.80;6.95;;;;;;;10.80;80.86;99320.13;5077007;28;20114;-95
2022/11/13 03:36:46;;;;;;;17.42;8.07;;;;;;;10.90;80.52;99335.03;5076721;28;20037;-94
2022/11/13 03:39:12;;;;;;;19.10;7.90;;;;;;;10.92;80.39;99324.34;5077410;28;20052;-94
2022/11/13 03:41:38;;;;;;;15.52;7.72;;;;;;;10.99;80.37;99344.59;5077692;28;20071;-95
2022/11/13 03:44:04;;;;;;;16.80;7.68;;;;;;;10.93;80.65;99334.06;5077124;28;20044;-96
2022/11/13 03:46:29;;;;;;;14.80;7.63;;;;;;;10.79;80.71;99313.06;5076575;28;20079;-95
2022/11/13 03:48:55;;;;;;;15.95;6.60;;;;;;;10.69;81.22;99299.06;5076597;28;20071;-95
2022/11/13 03:51:23;;;;;;;15.25;8.07;;;;;;;10.88;81.56;99344.81;5076907;28;20068;-95
2022/11/13 03:53:48;;;;;;;16.00;8.15;;;;;;;10.83;81.81;99338.72;5076448;28;20045;-93
2022/11/13 03:56:14;;;;;;;22.00;8.55;;;;;;;10.76;82.00;99329.97;5075913;28;20036;-95
2022/11/13 03:58:40;;;;;;;17.25;8.95;;;;;;;10.75;82.13;99333.53;5075978;28;20047;-93
2022/11/13 04:01:06;;;;;;;20.70;8.40;;;;;;;10.62;82.62;99306.28;5075772;28;20091;-94
2022/11/13 04:03:32;;;;;;;17.70;8.60;;;;;;;10.79;82.87;99337.00;5075872;28;20122;-94
2022/11/13 04:05:58;;;;;;;19.13;8.25;;;;;;;10.65;83.13;99316.00;5075710;28;20040;-92
2022/11/13 04:08:25;;;;;;;20.83;10.50;;;;;;;10.67;83.52;99324.84;5076440;28;20405;-92
2022/11/13 04:10:51;;;;;;;21.35;9.40;;;;;;;10.58;83.78;99317.91;5076157;28;20041;-93
2022/11/13 04:13:17;;;;;;;21.15;10.85;;;;;;;10.62;84.27;99311.59;5075789;28;20428;-96
2022/11/13 04:15:42;;;;;;;22.77;11.40;;;;;;;10.69;84.54;99321.25;5076094;28;20043;-92
2022/11/13 04:18:09;;;;;;;23.52;10.57;;;;;;;10.56;85.11;99313.50;5075816;28;20036;-94
2022/11/13 04:20:35;;;;;;;24.92;9.77;;;;;;;10.56;85.23;99309.06;5076139;28;20402;-94
2022/11/13 04:23:03;;;;;;;23.20;9.90;;;;;;;10.61;85.95;99324.94;5075883;28;20055;-94
2022/11/13 04:25:30;;;;;;;22.63;10.82;;;;;;;10.51;86.38;99312.72;5076655;28;20072;-93
2022/11/13 04:27:56;;;;;;;21.23;10.02;;;;;;;10.41;86.37;99298.69;5077882;28;20501;-95
2022/11/13 04:30:22;;;;;;;25.80;10.90;;;;;;;10.56;86.45;99317.06;5076227;28;20090;-95
2022/11/13 04:32:48;;;;;;;20.80;10.40;;;;;;;10.51;86.45;99310.06;5075916;28;20052;-93
2022/11/13 04:35:14;;;;;;;22.00;10.57;;;;;;;10.49;86.52;99315.38;5077080;28;20059;-96
2022/11/13 04:37:40;;;;;;;24.08;10.15;;;;;;;10.35;86.94;99301.47;5077686;28;20119;-95
2022/11/13 04:40:07;;;;;;;20.48;10.38;;;;;;;10.31;87.45;99305.09;5077369;28;20067;-95
2022/11/13 04:45:36;;;;;;;21.83;9.98;;;;;;;10.22;88.40;99322.91;5141609;27;20880;-96
2022/11/13 04:48:02;;;;;;;21.38;9.45;;;;;;;10.13;88.66;99319.50;5137939;27;20500;-95
2022/11/13 04:50:27;;;;;;;25.60;11.25;;;;;;;9.84;88.84;99286.34;5135969;27;20073;-95
2022/11/13 04:52:53;;;;;;;21.70;10.45;;;;;;;9.88;89.91;99327.88;5135668;27;20506;-95
2022/11/13 04:55:19;;;;;;;25.52;10.65;;;;;;;9.86;91.38;99297.81;5134313;27;20037;-95
2022/11/13 04:57:45;;;;;;;25.83;11.40;;;;;;;10.18;91.01;99315.03;5135078;27;20404;-96
2022/11/13 05:00:12;;;;;;;24.42;11.50;;;;;;;10.56;88.93;99313.50;5134214;27;20492;-95
2022/11/13 05:02:39;;;;;;;24.10;11.50;;;;;;;10.68;88.00;99324.78;5133610;27;20134;-96
2022/11/13 05:05:05;;;;;;;25.77;11.23;;;;;;;10.66;88.08;99304.44;5134607;27;20043;-95
2022/11/13 05:07:31;;;;;;;27.20;12.23;;;;;;;10.88;87.80;99326.19;5133725;27;20475;-94
2022/11/13 05:09:57;;;;;;;23.58;11.27;;;;;;;10.85;87.32;99319.16;5134802;27;20059;-96
2022/11/13 05:12:23;;;;;;;32.80;12.52;;;;;;;10.95;87.48;99326.94;5137692;27;20047;-95
2022/11/13 05:14:49;;;;;;;27.85;10.88;;;;;;;11.01;86.21;99286.91;5138210;27;20048;-94
2022/11/13 05:17:15;;;;;;;24.15;10.80;;;;;;;11.11;85.80;99307.13;5138635;27;20115;-93
2022/11/13 05:19:42;;;;;;;22.90;10.13;;;;;;;11.15;85.63;99306.16;5137258;27;20047;-96
2022/11/13 05:22:08;;;;;;;22.05;9.63;;;;;;;11.10;85.45;99306.25;5138018;27;20059;-96
2022/11/13 05:24:34;;;;;;;27.15;9.52;;;;;;;11.17;83.44;99293.69;5136626;27;20051;-95
2022/11/13 05:27:00;;;;;;;20.30;9.85;;;;;;;11.16;82.72;99272.41;5135978;27;20051;-94
2022/11/13 05:29:26;;;;;;;22.50;9.40;;;;;;;11.38;81.69;99291.44;5137417;27;20067;-96
2022/11/13 05:31:52;;;;;;;19.70;9.43;;;;;;;11.22;81.65;99272.28;5137144;27;20054;-96
2022/11/13 05:34:17;;;;;;;19.05;9.25;;;;;;;11.27;82.12;99299.66;5135593;27;20067;-95
2022/11/13 05:36:45;;;;;;;21.83;9.10;;;;;;;11.25;79.85;99278.41;5140092;27;20068;-95
2022/11/13 05:39:11;;;;;;;17.20;8.77;;;;;;;11.36;79.39;99282.63;5138615;27;20083;-96
2022/11/13 05:41:37;;;;;;;18.20;8.48;;;;;;;11.35;78.28;99272.91;5143479;27;20516;-96
2022/11/13 05:44:03;;;;;;;17.85;8.35;;;;;;;11.57;77.39;99297.25;5139112;27;20116;-94
2022/11/13 05:46:29;;;;;;;17.13;8.02;;;;;;;11.36;77.59;99256.00;5142673;27;20047;-96
2022/11/13 05:48:57;;;;;;;22.13;8.68;;;;;;;11.27;78.75;99268.59;5139140;27;20043;-96
2022/11/13 05:51:24;;;;;;;21.92;8.55;;;;;;;11.39;78.41;99285.22;5135411;27;20051;-96
2022/11/13 05:53:55;;;;;;;22.55;9.80;;;;;;;11.32;79.83;99281.84;5139797;27;20046;-96
2022/11/13 05:56:23;;;;;;;17.70;8.88;;;;;;;11.25;80.05;99270.41;5126687;27;20054;-96
2022/11/13 05:58:51;;;;;;;18.57;9.60;;;;;;;11.27;80.72;99287.22;5126480;28;20044;-95
2022/11/13 06:01:21;;;;;;;21.13;9.75;;;;;;;11.19;80.79;99283.88;5123455;28;20089;-93
2022/11/13 06:03:48;;;;;;;21.77;9.45;;;;;;;11.24;80.90;99292.63;5125806;28;20040;-95
2022/11/13 06:06:17;;;;;;;21.40;9.60;;;;;;;11.13;81.38;99292.00;5123941;28;20044;-95
2022/11/13 06:08:46;;;;;;;23.75;9.05;;;;;;;11.06;82.09;99293.00;5125444;28;20593;-96
2022/11/13 06:11:15;;;;;;;;;;;;;;;11.23;81.99;99325.50;5126082;28;20113;-96
2022/11/13 06:13:41;;;;;;;23.88;10.48;;;;;;;11.07;82.96;99324.06;5124697;28;19920;-96
2022/11/13 06:16:11;;;;;;;20.55;10.32;;;;;;;10.98;82.94;99308.28;5126481;28;20044;-96
2022/11/13 06:18:37;;;;;;;20.27;10.90;;;;;;;10.93;83.61;99331.41;5126291;28;20039;-96
2022/11/13 06:21:05;;;;;;;19.88;10.52;;;;;;;10.82;84.16;99311.25;5126030;28;20395;-94
2022/11/13 06:23:32;;;;;;;27.17;11.13;;;;;;;10.86;83.68;99306.72;5122140;28;20035;-95
2022/11/13 06:26:02;;;;;;;23.42;11.23;;;;;;;10.85;84.36;99311.16;5121922;28;20088;-94
2022/11/13 06:28:29;;;;;;;;;;;;;;;10.73;85.26;99326.47;5121324;28;20051;-95
2022/11/13 06:30:55;;;;;;;30.13;12.65;;;;;;;10.44;86.71;99310.16;5124051;28;19919;-95
2022/11/13 06:33:21;;;;;;;28.00;11.55;;;;;;;10.47;87.03;99312.78;5122275;28;20093;-96
2022/11/13 06:35:47;;;;;;;25.27;11.82;;;;;;;10.66;86.74;99320.41;5121206;28;20492;-96
2022/11/13 06:38:13;;;;;;;24.58;11.68;;;;;;;10.66;86.60;99307.09;5121712;28;20434;-96
2022/11/13 06:40:39;;;;;;;22.75;11.23;;;;;;;10.63;85.76;99299.19;5121725;28;20544;-94
2022/11/13 06:43:04;;;;;;;25.85;11.13;;;;;;;10.74;85.95;99317.63;5121576;28;20062;-94
2022/11/13 06:45:32;;;;;;;25.92;12.00;;;;;;;10.74;85.64;99326.47;5121830;28;20055;-94
2022/11/13 06:47:57;;;;;;;28.73;12.57;;;;;;;10.75;85.25;99312.25;5114659;28;20389;-96
2022/11/13 06:50:23;;;;;;;25.10;11.75;;;;;;;10.83;85.57;99331.59;5099031;28;20051;-95
2022/11/13 06:52:49;;;;;;;26.70;11.93;;;;;;;10.70;85.69;99311.47;5099791;28;20135;-95
2022/11/13 06:55:15;;;;;;;26.42;11.10;;;;;;;10.71;85.50;99301.69;5116021;28;20400;-95
2022/11/13 06:57:41;;;;;;;32.13;13.27;;;;;;;10.98;85.08;99313.59;5119735;28;20047;-94
2022/11/13 07:00:08;;;;;;;28.52;11.38;;;;;;;11.06;84.05;99293.91;5120223;28;20040;-95
2022/11/13 07:02:36;;;;;;;27.98;12.35;;;;;;;11.19;83.26;99305.19;5120231;28;20088;-95
2022/11/13 07:05:02;;;;;;;25.23;11.07;;;;;;;11.28;82.48;99291.66;5119708;27;20040;-95
2022/11/13 07:07:27;;;;;;;32.33;11.65;;;;;;;11.45;82.24;99319.69;5119390;28;20101;-95
2022/11/13 07:09:53;;;;;;;27.48;12.52;;;;;;;11.39;82.14;99298.53;5120619;27;20036;-95
2022/11/13 07:12:19;;;;;;;27.02;11.23;;;;;;;11.40;81.67;99287.84;5122695;28;20143;-96
2022/11/13 07:14:45;;;;;;;29.77;12.63;;;;;;;11.51;81.63;99303.59;5122284;27;20039;-96
2022/11/13 07:17:11;;;;;;;27.55;11.20;;;;;;;11.57;81.09;99314.09;5121860;28;20046;-95
2022/11/13 07:19:40;;;;;;;24.70;11.00;;;;;;;11.56;80.85;99309.69;5121613;28;20043;-95
2022/11/13 07:22:06;;;;;;;25.27;11.65;;;;;;;11.59;81.01;99325.59;5109214;28;20044;-95
2022/11/13 07:24:32;;;;;;;29.77;12.65;;;;;;;11.44;80.65;99313.50;5114439;28;20126;-94
2022/11/13 07:26:58;;;;;;;25.02;11.20;;;;;;;11.37;81.11;99306.56;5117932;28;20039;-95
2022/11/13 07:29:24;;;;;;;33.28;12.48;;;;;;;11.39;81.44;99325.19;5118389;28;20038;-94
2022/11/13 07:31:50;;;;;;;28.90;12.57;;;;;;;11.36;81.81;99325.22;5117932;27;20063;-95
2022/11/13 07:34:15;;;;;;;30.15;13.02;;;;;;;11.29;81.39;99319.16;5117739;28;20046;-95
2022/11/13 07:36:43;;;;;;;26.77;11.75;;;;;;;11.18;81.90;99307.84;5117358;28;20024;-95
2022/11/13 07:39:09;;;;;;;29.25;11.60;;;;;;;11.35;81.51;99329.69;5118010;28;20082;-96
2022/11/13 07:41:35;;;;;;;29.45;11.98;;;;;;;11.49;80.91;99310.72;5118747;28;20048;-96
2022/11/13 07:44:01;;;;;;;25.45;11.45;;;;;;;11.60;80.49;99291.84;5119471;28;20052;-96
2022/11/13 07:46:26;;;;;;;28.65;11.65;;;;;;;11.81;80.37;99310.00;5119704;28;20122;-96
2022/11/13 07:48:55;;;;;;;25.40;11.45;;;;;;;12.01;79.31;99309.56;5126692;28;20070;-96
2022/11/13 07:51:21;;;;;;;27.27;11.68;;;;;;;12.16;78.42;99288.78;5128413;28;20092;-96
2022/11/13 07:53:50;;;;;;;26.38;12.20;;;;;;;12.36;76.81;99290.91;5126227;28;20070;-96
2022/11/13 07:56:16;;;;;;;27.80;12.63;;;;;;;12.21;77.03;99290.41;5125135;28;20047;-96
2022/11/13 07:58:41;;;;;;;25.75;12.23;;;;;;;12.40;77.15;99297.94;5125491;28;20337;-96
2022/11/13 08:01:08;;;;;;;30.42;12.70;;;;;;;12.34;76.43;99290.97;5129799;28;20040;-96
2022/11/13 08:03:34;;;;;;;35.30;13.18;;;;;;;12.31;77.50;99323.03;5121815;28;20050;-95
2022/11/13 08:06:02;;;;;;;27.13;10.90;;;;;;;12.26;77.29;99291.16;5123241;28;20040;-96
2022/11/13 08:08:32;;;;;;;28.63;11.57;;;;;;;12.13;77.39;99293.25;5123400;28;20036;-96
2022/11/13 08:11:03;;;;;;;32.25;12.40;;;;;;;11.91;78.42;99308.03;5120277;28;20113;-96
2022/11/13 08:13:29;;;;;;;27.10;12.45;;;;;;;11.83;78.57;99297.50;5123696;28;20044;-94
2022/11/13 08:15:59;;;;;;;35.47;12.90;;;;;;;11.56;80.09;99293.72;5123211;28;20031;-96
2022/11/13 08:18:26;;;;;;;32.83;14.63;;;;;;;11.58;80.75;99307.88;5122912;28;20036;-96
2022/11/13 08:20:51;;;;;;;28.75;13.00;;;;;;;11.65;81.54;99328.13;5118801;28;20039;-96
2022/11/13 08:23:18;;;;;;;28.95;12.30;;;;;;;11.46;81.37;99316.13;5119552;28;20036;-96
2022/11/13 08:25:44;;;;;;;27.35;12.52;;;;;;;11.61;81.00;99347.75;5124817;28;20048;-96
2022/11/13 08:28:12;;;;;;;31.60;12.57;;;;;;;11.40;81.17;99308.28;5125674;27;20134;-95
2022/11/13 08:30:38;;;;;;;25.55;12.23;;;;;;;11.48;80.13;99316.97;5120595;28;20043;-95
2022/11/13 08:33:04;;;;;;;29.45;11.50;;;;;;;11.56;79.73;99301.72;5121041;28;20377;-96
2022/11/13 08:35:30;;;;;;;29.98;12.68;;;;;;;11.61;79.06;99304.28;5121319;28;20096;-95
2022/11/13 08:38:00;;;;;;;30.50;12.18;;;;;;;11.64;79.69;99297.06;5125943;28;20089;-94
2022/11/13 08:40:26;;;;;;;32.78;12.88;;;;;;;11.65;80.22;99301.50;5117513;28;20078;-95
2022/11/13 08:42:56;;;;;;;31.42;17.05;;;;;;;11.78;79.40;99307.41;5111097;28;20048;-95
2022/11/13 08:45:24;;;;;;;31.15;12.23;;;;;;;12.01;78.53;99298.88;5117999;28;20067;-95
2022/11/13 08:47:50;;;;;;;28.90;12.00;;;;;;;12.29;76.61;99304.41;5119138;28;20051;-95
2022/11/13 08:50:16;;;;;;;27.63;12.02;;;;;;;12.47;75.34;99320.84;5115270;28;20036;-95
2022/11/13 08:52:42;;;;;;;28.27;11.45;;;;;;;12.56;74.68;99303.75;5119255;28;20040;-95
2022/11/13 08:55:18;;;;;;;29.33;12.18;;;;;;;13.02;73.41;99319.38;5122749;28;20113;-96
2022/11/13 08:57:44;;;;;;;24.73;10.77;;;;;;;13.12;72.14;99323.53;5126588;28;20043;-96
2022/11/13 09:00:11;;;;;;;25.92;10.95;;;;;;;12.95;70.74;99321.34;5121462;28;20051;-96
2022/11/13 09:02:42;;;;;;;20.20;10.27;;;;;;;13.01;70.76;99325.66;5124463;28;20040;-96
2022/11/13 09:05:11;;;;;;;19.08;9.88;;;;;;;13.14;68.69;99302.13;5122396;28;20052;-95
2022/11/13 09:07:36;;;;;;;19.83;10.07;;;;;;;13.36;67.60;99307.75;5120079;28;20048;-96
2022/11/13 09:10:08;;;;;;;18.65;9.10;;;;;;;13.70;66.76;99318.28;5120770;28;20047;-96
2022/11/13 09:12:34;;;;;;;18.20;8.65;;;;;;;13.77;66.29;99309.16;5121911;28;20490;-95
2022/11/13 09:15:00;;;;;;;20.80;9.07;;;;;;;13.70;67.12;99310.25;5120946;28;20141;-96
2022/11/13 09:17:26;;;;;;;20.55;9.18;;;;;;;13.85;67.05;99324.06;5126042;28;20036;-96
2022/11/13 09:19:53;;;;;;;21.90;10.63;;;;;;;13.89;65.53;99309.69;5122539;28;20039;-95
2022/11/13 09:22:19;;;;;;;18.58;9.32;;;;;;;14.04;65.28;99319.88;5121862;28;20198;-96
2022/11/13 09:24:45;;;;;;;17.60;9.60;;;;;;;14.20;64.56;99314.03;5123545;28;20063;-96
2022/11/13 09:27:18;;;;;;;18.70;8.75;;;;;;;14.44;61.63;99310.53;5122554;28;20135;-96
2022/11/13 09:29:45;;;;;;;19.77;9.48;;;;;;;14.84;62.96;99344.00;5121240;28;20055;-96
2022/11/13 09:32:11;;;;;;;19.67;9.45;;;;;;;14.58;61.28;99304.75;5124053;28;20043;-96
2022/11/13 09:34:37;;;;;;;18.00;8.32;;;;;;;14.61;63.15;99307.31;5126023;28;20126;-96
2022/11/13 09:37:05;;;;;;;19.45;10.30;;;;;;;14.42;62.68;99303.47;5125500;28;20047;-96
2022/11/13 09:39:34;;;;;;;19.85;9.50;;;;;;;14.28;62.77;99301.28;5125783;28;20047;-96
2022/11/13 09:42:09;;;;;;;20.23;8.93;;;;;;;14.29;63.27;99321.75;5129555;28;20035;-96
2022/11/13 09:44:40;;;;;;;20.88;8.48;;;;;;;14.24;61.96;99329.06;5126229;27;20050;-96
2022/11/13 09:47:13;;;;;;;18.77;9.02;;;;;;;14.28;61.02;99315.53;5127958;28;20044;-96
2022/11/13 09:49:44;;;;;;;19.05;8.93;;;;;;;14.55;59.66;99343.19;5126033;27;20127;-96
2022/11/13 09:52:16;;;;;;;19.77;8.55;;;;;;;14.31;57.93;99311.88;5128422;28;20055;-95
2022/11/13 09:54:42;;;;;;;20.38;9.90;;;;;;;14.62;59.11;99322.44;5129812;28;20073;-94
2022/11/13 09:57:24;;;;;;;15.25;8.10;;;;;;;14.42;57.81;99323.09;5132517;28;20052;-96
2022/11/13 09:59:56;;;;;;;16.83;8.50;;;;;;;14.27;57.76;99320.91;5130247;28;20063;-96
2022/11/13 10:02:42;;;;;;;15.77;8.13;;;;;;;14.11;58.40;99288.47;5134839;28;20039;-96
2022/11/13 10:05:20;;;;;;;16.10;7.57;;;;;;;14.05;58.81;99300.25;5132396;27;20040;-96
2022/11/13 10:08:08;;;;;;;15.70;7.82;;;;;;;14.25;59.36;99331.69;5132032;28;20036;-96
2022/11/13 10:14:02;;;;;;;16.55;8.68;;;;;;;13.76;60.47;99283.34;5122724;28;20038;-96
2022/11/13 10:16:37;;;;;;;17.10;9.35;;;;;;;13.81;60.25;99276.97;5133776;28;20048;-96
2022/11/13 10:19:38;;;;;;;15.13;8.25;;;;;;;13.98;60.72;99288.84;5134594;28;20062;-96
2022/11/13 10:22:15;;;;;;;18.33;8.55;;;;;;;13.93;60.87;99260.53;5132556;28;20490;-96
2022/11/13 10:24:43;;;;;;;17.75;8.93;;;;;;;14.03;60.05;99267.34;5127876;28;20040;-96
2022/11/13 10:27:12;;;;;;;16.92;8.73;;;;;;;13.97;60.66;99278.25;5128301;28;20040;-96
2022/11/13 10:29:40;;;;;;;16.23;9.10;;;;;;;13.82;60.60;99260.03;5129248;28;20134;-96
2022/11/13 10:32:16;;;;;;;18.08;9.00;;;;;;;14.02;61.52;99289.66;5128931;28;20039;-96
2022/11/13 10:34:50;;;;;;;19.42;8.95;;;;;;;13.87;61.21;99250.03;5132158;27;20063;-94
2022/11/13 10:37:29;;;;;;;16.50;8.88;;;;;;;13.94;62.07;99263.19;5170140;27;20405;-96
2022/11/13 10:39:57;;;;;;;17.30;7.70;;;;;;;13.92;61.99;99256.09;5171978;27;20172;-96
2022/11/13 10:42:27;;;;;;;18.20;8.33;;;;;;;13.88;62.70;99252.69;5170545;27;20050;-96
2022/11/13 10:44:56;;;;;;;17.13;8.98;;;;;;;13.88;63.48;99252.69;5168237;27;20579;-96
2022/11/13 10:47:33;;;;;;;16.80;9.63;;;;;;;13.83;63.79;99245.72;5175657;27;20117;-96
2022/11/13 10:50:10;;;;;;;21.08;10.32;;;;;;;13.86;63.33;99242.97;5170515;27;20049;-96
2022/11/13 10:52:47;;;;;;;20.67;10.07;;;;;;;13.87;63.99;99250.03;5171158;27;20072;-96
2022/11/13 10:55:23;;;;;;;18.95;9.73;;;;;;;14.11;63.60;99267.06;5170727;27;20511;-96
2022/11/13 10:57:57;;;;;;;21.60;10.75;;;;;;;13.98;62.48;99234.50;5172311;27;20046;-96
2022/11/13 11:00:32;;;;;;;20.65;11.98;;;;;;;14.17;62.59;99226.75;5170626;27;20043;-96
2022/11/13 11:02:58;;;;;;;27.27;12.27;;;;;;;14.27;62.70;99230.88;5170753;27;20029;-96
2022/11/13 11:05:26;;;;;;;21.83;11.80;;;;;;;14.49;61.92;99233.66;5170817;27;20031;-96
2022/11/13 11:07:53;;;;;;;20.98;12.00;;;;;;;14.55;62.57;99220.09;5169674;27;20042;-96
2022/11/13 11:10:30;;;;;;;26.80;14.30;;;;;;;14.61;60.91;99210.06;5166230;27;20047;-96
2022/11/13 11:13:07;;;;;;;20.55;10.52;;;;;;;14.60;60.74;99208.34;5173292;27;20038;-96
2022/11/13 11:18:59;;;;;;;16.40;9.95;;;;;;;14.44;60.61;99202.63;5123365;22;20117;-96
2022/11/13 11:21:33;;;;;;;17.40;9.77;;;;;;;14.61;58.58;99196.69;5066954;28;20100;-95
2022/11/13 11:24:05;;;;;;;19.77;10.00;;;;;;;14.61;59.79;99199.38;5067856;28;20053;-96
2022/11/13 11:26:43;;;;;;;16.83;9.98;;;;;;;14.72;59.41;99192.69;5071474;28;20056;-96
2022/11/13 11:29:34;;;;;;;19.35;9.95;;;;;;;14.86;59.35;99188.63;5070763;28;20052;-96
2022/11/13 11:32:17;;;;;;;19.80;10.02;;;;;;;14.83;58.11;99186.06;5073511;28;20087;-95
2022/11/13 11:34:59;;;;;;;16.00;9.30;;;;;;;14.96;57.83;99174.84;5084000;28;20055;-96
2022/11/13 11:37:30;;;;;;;16.48;9.05;;;;;;;14.78;57.57;99173.72;5086376;28;20041;-93